sensor_id;sensor_type;location;lat;lon;timestamp;P1;durP1;ratioP1;P2;durP2;ratioP2
63217;SDS011;49314;48.278;16.378;2022-11-20T00:00:41;8.53;;;7.73;;
63217;SDS011;49314;48.278;16.378;2022-11-20T00:03:07;7.27;;;6.70;;
63217;SDS011;49314;48.278;16.378;2022-11-20T00:05:32;7.50;;;6.47;;
63217;SDS011;49314;48.278;16.378;2022-11-20T00:07:57;8.20;;;6.95;;
63217;SDS011;49314;48.278;16.378;2022-11-20T00:10:23;7.35;;;6.75;;
63217;SDS011;49314;48.278;16.378;2022-11-20T00:12:48;7.90;;;7.23;;
63217;SDS011;49314;48.278;16.378;2022-11-20T00:15:13;7.77;;;7.10;;
63217;SDS011;49314;48.278;16.378;2022-11-20T00:17:38;7.37;;;6.77;;
63217;SDS011;49314;48.278;16.378;2022-11-20T00:20:03;8.20;;;7.50;;
63217;SDS011;49314;48.278;16.378;2022-11-20T00:22:29;6.60;;;6.10;;
63217;SDS011;49314;48.278;16.378;2022-11-20T00:24:54;7.50;;;6.90;;
63217;SDS011;49314;48.278;16.378;2022-11-20T00:27:19;8.07;;;7.37;;
63217;SDS011;49314;48.278;16.378;2022-11-20T00:29:45;7.60;;;7.10;;
63217;SDS011;49314;48.278;16.378;2022-11-20T00:32:10;7.03;;;6.57;;
63217;SDS011;49314;48.278;16.378;2022-11-20T00:34:35;7.70;;;7.20;;
63217;SDS011;49314;48.278;16.378;2022-11-20T00:37:00;7.27;;;6.87;;
63217;SDS011;49314;48.278;16.378;2022-11-20T00:39:25;6.80;;;6.30;;
63217;SDS011;49314;48.278;16.378;2022-11-20T00:41:50;8.10;;;7.40;;
63217;SDS011;49314;48.278;16.378;2022-11-20T00:44:16;8.27;;;7.67;;
63217;SDS011;49314;48.278;16.378;2022-11-20T00:46:41;7.23;;;6.73;;
63217;SDS011;49314;48.278;16.378;2022-11-20T00:49:06;8.00;;;7.50;;
63217;SDS011;49314;48.278;16.378;2022-11-20T00:51:31;7.70;;;7.10;;
63217;SDS011;49314;48.278;16.378;2022-11-20T00:53:57;6.37;;;5.87;;
63217;SDS011;49314;48.278;16.378;2022-11-20T00:56:22;7.65;;;7.05;;
63217;SDS011;49314;48.278;16.378;2022-11-20T00:58:48;7.35;;;6.85;;
63217;SDS011;49314;48.278;16.378;2022-11-20T01:01:14;7.45;;;6.95;;
63217;SDS011;49314;48.278;16.378;2022-11-20T01:03:44;6.75;;;6.35;;
63217;SDS011;49314;48.278;16.378;2022-11-20T01:06:10;7.35;;;6.85;;
63217;SDS011;49314;48.278;16.378;2022-11-20T01:08:36;7.32;;;6.82;;
63217;SDS011;49314;48.278;16.378;2022-11-20T01:11:02;7.38;;;6.88;;
63217;SDS011;49314;48.278;16.378;2022-11-20T01:13:28;7.63;;;7.07;;
63217;SDS011;49314;48.278;16.378;2022-11-20T01:16:03;6.32;;;5.93;;
63217;SDS011;49314;48.278;16.378;2022-11-20T01:18:29;7.82;;;7.22;;
63217;SDS011;49314;48.278;16.378;2022-11-20T01:20:54;6.93;;;6.45;;
63217;SDS011;49314;48.278;16.378;2022-11-20T01:23:19;7.00;;;6.50;;
63217;SDS011;49314;48.278;16.378;2022-11-20T01:25:44;7.27;;;6.80;;
63217;SDS011;49314;48.278;16.378;2022-11-20T01:28:10;8.30;;;7.70;;
63217;SDS011;49314;48.278;16.378;2022-11-20T01:30:35;8.47;;;7.97;;
63217;SDS011;49314;48.278;16.378;2022-11-20T01:33:00;7.57;;;7.00;;
63217;SDS011;49314;48.278;16.378;2022-11-20T01:35:25;6.83;;;6.33;;
63217;SDS011;49314;48.278;16.378;2022-11-20T01:37:50;6.60;;;6.20;;
63217;SDS011;49314;48.278;16.378;2022-11-20T01:40:16;7.30;;;6.80;;
63217;SDS011;49314;48.278;16.378;2022-11-20T01:42:44;6.73;;;6.23;;
63217;SDS011;49314;48.278;16.378;2022-11-20T01:48:13;7.50;;;7.00;;
63217;SDS011;49314;48.278;16.378;2022-11-20T01:50:38;7.18;;;6.68;;
63217;SDS011;49314;48.278;16.378;2022-11-20T01:53:05;6.90;;;6.50;;
63217;SDS011;49314;48.278;16.378;2022-11-20T01:55:37;6.88;;;6.40;;
63217;SDS011;49314;48.278;16.378;2022-11-20T01:58:04;7.20;;;6.70;;
63217;SDS011;49314;48.278;16.378;2022-11-20T02:00:29;7.00;;;6.55;;
63217;SDS011;49314;48.278;16.378;2022-11-20T02:02:56;7.25;;;6.75;;
63217;SDS011;49314;48.278;16.378;2022-11-20T02:05:27;7.13;;;6.63;;
63217;SDS011;49314;48.278;16.378;2022-11-20T02:07:54;7.43;;;6.93;;
63217;SDS011;49314;48.278;16.378;2022-11-20T02:10:20;7.13;;;6.72;;
63217;SDS011;49314;48.278;16.378;2022-11-20T02:12:45;6.93;;;6.50;;
63217;SDS011;49314;48.278;16.378;2022-11-20T02:15:29;7.55;;;7.03;;
63217;SDS011;49314;48.278;16.378;2022-11-20T02:17:54;6.87;;;6.47;;
63217;SDS011;49314;48.278;16.378;2022-11-20T02:20:19;7.03;;;6.63;;
63217;SDS011;49314;48.278;16.378;2022-11-20T02:22:49;7.13;;;6.73;;
63217;SDS011;49314;48.278;16.378;2022-11-20T02:25:15;6.97;;;6.47;;
63217;SDS011;49314;48.278;16.378;2022-11-20T02:27:41;6.95;;;6.45;;
63217;SDS011;49314;48.278;16.378;2022-11-20T02:30:06;7.20;;;6.80;;
63217;SDS011;49314;48.278;16.378;2022-11-20T02:32:34;7.68;;;7.18;;
63217;SDS011;49314;48.278;16.378;2022-11-20T02:35:35;7.85;;;7.25;;
63217;SDS011;49314;48.278;16.378;2022-11-20T02:37:54;5.95;;;5.53;;
63217;SDS011;49314;48.278;16.378;2022-11-20T02:40:21;7.45;;;6.95;;
63217;SDS011;49314;48.278;16.378;2022-11-20T02:42:46;7.75;;;7.25;;
63217;SDS011;49314;48.278;16.378;2022-11-20T02:45:12;7.33;;;6.83;;
63217;SDS011;49314;48.278;16.378;2022-11-20T02:47:37;7.63;;;7.13;;
63217;SDS011;49314;48.278;16.378;2022-11-20T02:50:02;7.53;;;7.13;;
63217;SDS011;49314;48.278;16.378;2022-11-20T02:52:28;6.97;;;6.47;;
63217;SDS011;49314;48.278;16.378;2022-11-20T02:54:53;7.37;;;6.87;;
63217;SDS011;49314;48.278;16.378;2022-11-20T02:57:19;7.28;;;6.85;;
63217;SDS011;49314;48.278;16.378;2022-11-20T02:59:44;7.40;;;6.80;;
63217;SDS011;49314;48.278;16.378;2022-11-20T03:02:09;7.03;;;6.60;;
63217;SDS011;49314;48.278;16.378;2022-11-20T03:04:34;7.00;;;6.47;;
63217;SDS011;49314;48.278;16.378;2022-11-20T03:07:00;8.03;;;7.53;;
63217;SDS011;49314;48.278;16.378;2022-11-20T03:09:25;7.68;;;7.10;;
63217;SDS011;49314;48.278;16.378;2022-11-20T03:11:50;7.83;;;7.33;;
63217;SDS011;49314;48.278;16.378;2022-11-20T03:14:16;7.72;;;7.22;;
63217;SDS011;49314;48.278;16.378;2022-11-20T03:16:41;7.50;;;7.00;;
63217;SDS011;49314;48.278;16.378;2022-11-20T03:19:06;7.87;;;7.37;;
63217;SDS011;49314;48.278;16.378;2022-11-20T03:21:34;7.53;;;7.03;;
63217;SDS011;49314;48.278;16.378;2022-11-20T03:24:00;6.97;;;6.47;;
63217;SDS011;49314;48.278;16.378;2022-11-20T03:26:25;7.32;;;6.82;;
63217;SDS011;49314;48.278;16.378;2022-11-20T03:28:52;6.95;;;6.47;;
63217;SDS011;49314;48.278;16.378;2022-11-20T03:31:18;7.97;;;7.43;;
63217;SDS011;49314;48.278;16.378;2022-11-20T03:33:44;7.60;;;7.10;;
63217;SDS011;49314;48.278;16.378;2022-11-20T03:36:10;7.43;;;6.93;;
63217;SDS011;49314;48.278;16.378;2022-11-20T03:38:36;7.80;;;7.28;;
63217;SDS011;49314;48.278;16.378;2022-11-20T03:41:05;7.05;;;6.65;;
63217;SDS011;49314;48.278;16.378;2022-11-20T03:43:31;7.40;;;6.88;;
63217;SDS011;49314;48.278;16.378;2022-11-20T03:45:57;8.43;;;7.82;;
63217;SDS011;49314;48.278;16.378;2022-11-20T03:48:22;7.72;;;7.22;;
63217;SDS011;49314;48.278;16.378;2022-11-20T03:50:47;7.47;;;6.97;;
63217;SDS011;49314;48.278;16.378;2022-11-20T03:53:16;7.70;;;7.20;;
63217;SDS011;49314;48.278;16.378;2022-11-20T03:55:41;6.60;;;6.15;;
63217;SDS011;49314;48.278;16.378;2022-11-20T03:58:06;7.45;;;6.95;;
63217;SDS011;49314;48.278;16.378;2022-11-20T04:00:32;7.60;;;7.07;;
63217;SDS011;49314;48.278;16.378;2022-11-20T04:02:58;8.30;;;7.67;;
63217;SDS011;49314;48.278;16.378;2022-11-20T04:05:23;7.47;;;6.97;;
63217;SDS011;49314;48.278;16.378;2022-11-20T04:07:48;7.30;;;6.80;;
63217;SDS011;49314;48.278;16.378;2022-11-20T04:10:14;7.57;;;7.07;;
63217;SDS011;49314;48.278;16.378;2022-11-20T04:12:39;7.20;;;6.80;;
63217;SDS011;49314;48.278;16.378;2022-11-20T04:15:04;8.00;;;7.40;;
63217;SDS011;49314;48.278;16.378;2022-11-20T04:17:29;7.07;;;6.57;;
63217;SDS011;49314;48.278;16.378;2022-11-20T04:19:55;7.05;;;6.65;;
63217;SDS011;49314;48.278;16.378;2022-11-20T04:22:20;7.77;;;7.27;;
63217;SDS011;49314;48.278;16.378;2022-11-20T04:24:45;6.27;;;5.77;;
63217;SDS011;49314;48.278;16.378;2022-11-20T04:27:10;6.17;;;5.77;;
63217;SDS011;49314;48.278;16.378;2022-11-20T04:29:35;7.10;;;6.60;;
63217;SDS011;49314;48.278;16.378;2022-11-20T04:32:01;7.20;;;6.70;;
63217;SDS011;49314;48.278;16.378;2022-11-20T04:34:26;6.43;;;5.97;;
63217;SDS011;49314;48.278;16.378;2022-11-20T04:36:51;6.80;;;6.40;;
63217;SDS011;49314;48.278;16.378;2022-11-20T04:39:16;7.10;;;6.60;;
63217;SDS011;49314;48.278;16.378;2022-11-20T04:41:42;7.40;;;6.90;;
63217;SDS011;49314;48.278;16.378;2022-11-20T04:44:07;7.55;;;7.05;;
63217;SDS011;49314;48.278;16.378;2022-11-20T04:46:41;6.95;;;6.50;;
63217;SDS011;49314;48.278;16.378;2022-11-20T04:49:07;7.30;;;6.80;;
63217;SDS011;49314;48.278;16.378;2022-11-20T04:51:33;7.28;;;6.88;;
63217;SDS011;49314;48.278;16.378;2022-11-20T04:53:58;7.20;;;6.70;;
63217;SDS011;49314;48.278;16.378;2022-11-20T04:56:23;7.63;;;7.13;;
63217;SDS011;49314;48.278;16.378;2022-11-20T04:58:48;6.93;;;6.53;;
63217;SDS011;49314;48.278;16.378;2022-11-20T05:01:18;7.53;;;7.03;;
63217;SDS011;49314;48.278;16.378;2022-11-20T05:03:44;7.93;;;7.38;;
63217;SDS011;49314;48.278;16.378;2022-11-20T05:06:10;7.55;;;7.15;;
63217;SDS011;49314;48.278;16.378;2022-11-20T05:08:35;7.75;;;7.25;;
63217;SDS011;49314;48.278;16.378;2022-11-20T05:11:01;7.83;;;7.33;;
63217;SDS011;49314;48.278;16.378;2022-11-20T05:13:27;7.82;;;7.32;;
63217;SDS011;49314;48.278;16.378;2022-11-20T05:15:52;7.22;;;6.72;;
63217;SDS011;49314;48.278;16.378;2022-11-20T05:18:17;7.67;;;7.23;;
63217;SDS011;49314;48.278;16.378;2022-11-20T05:20:43;8.30;;;7.80;;
63217;SDS011;49314;48.278;16.378;2022-11-20T05:23:08;7.97;;;7.47;;
63217;SDS011;49314;48.278;16.378;2022-11-20T05:25:33;8.00;;;7.50;;
63217;SDS011;49314;48.278;16.378;2022-11-20T05:27:58;7.27;;;6.83;;
63217;SDS011;49314;48.278;16.378;2022-11-20T05:30:23;8.07;;;7.57;;
63217;SDS011;49314;48.278;16.378;2022-11-20T05:32:49;7.87;;;7.37;;
63217;SDS011;49314;48.278;16.378;2022-11-20T05:35:14;8.27;;;7.77;;
63217;SDS011;49314;48.278;16.378;2022-11-20T05:37:39;8.15;;;7.65;;
63217;SDS011;49314;48.278;16.378;2022-11-20T05:40:04;7.00;;;6.60;;
63217;SDS011;49314;48.278;16.378;2022-11-20T05:42:30;7.55;;;7.05;;
63217;SDS011;49314;48.278;16.378;2022-11-20T05:44:56;7.72;;;7.22;;
63217;SDS011;49314;48.278;16.378;2022-11-20T05:47:21;7.75;;;7.25;;
63217;SDS011;49314;48.278;16.378;2022-11-20T05:49:46;7.70;;;7.20;;
63217;SDS011;49314;48.278;16.378;2022-11-20T05:52:12;7.03;;;6.53;;
63217;SDS011;49314;48.278;16.378;2022-11-20T05:54:37;7.50;;;7.00;;
63217;SDS011;49314;48.278;16.378;2022-11-20T05:57:02;6.57;;;6.17;;
63217;SDS011;49314;48.278;16.378;2022-11-20T05:59:27;7.20;;;6.72;;
63217;SDS011;49314;48.278;16.378;2022-11-20T06:01:52;6.38;;;6.00;;
63217;SDS011;49314;48.278;16.378;2022-11-20T06:04:18;7.10;;;6.70;;
63217;SDS011;49314;48.278;16.378;2022-11-20T06:06:43;7.07;;;6.63;;
63217;SDS011;49314;48.278;16.378;2022-11-20T06:09:08;7.30;;;6.90;;
63217;SDS011;49314;48.278;16.378;2022-11-20T06:11:33;8.40;;;7.70;;
63217;SDS011;49314;48.278;16.378;2022-11-20T06:13:59;7.40;;;6.97;;
63217;SDS011;49314;48.278;16.378;2022-11-20T06:16:24;7.27;;;6.87;;
63217;SDS011;49314;48.278;16.378;2022-11-20T06:18:49;6.35;;;5.95;;
63217;SDS011;49314;48.278;16.378;2022-11-20T06:21:15;6.83;;;6.37;;
63217;SDS011;49314;48.278;16.378;2022-11-20T06:23:41;7.85;;;7.35;;
63217;SDS011;49314;48.278;16.378;2022-11-20T06:26:07;6.45;;;6.05;;
63217;SDS011;49314;48.278;16.378;2022-11-20T06:28:33;7.22;;;6.82;;
63217;SDS011;49314;48.278;16.378;2022-11-20T06:30:59;6.47;;;6.07;;
63217;SDS011;49314;48.278;16.378;2022-11-20T06:33:24;6.80;;;6.40;;
63217;SDS011;49314;48.278;16.378;2022-11-20T06:35:49;7.05;;;6.65;;
63217;SDS011;49314;48.278;16.378;2022-11-20T06:38:15;7.30;;;6.88;;
63217;SDS011;49314;48.278;16.378;2022-11-20T06:40:40;7.87;;;7.43;;
63217;SDS011;49314;48.278;16.378;2022-11-20T06:43:06;5.43;;;5.07;;
63217;SDS011;49314;48.278;16.378;2022-11-20T06:45:31;7.57;;;7.07;;
63217;SDS011;49314;48.278;16.378;2022-11-20T06:47:59;7.40;;;6.90;;
63217;SDS011;49314;48.278;16.378;2022-11-20T06:50:24;7.28;;;6.80;;
63217;SDS011;49314;48.278;16.378;2022-11-20T06:52:49;7.07;;;6.67;;
63217;SDS011;49314;48.278;16.378;2022-11-20T06:55:15;6.50;;;6.10;;
63217;SDS011;49314;48.278;16.378;2022-11-20T06:57:40;6.10;;;5.70;;
63217;SDS011;49314;48.278;16.378;2022-11-20T07:00:05;7.17;;;6.67;;
63217;SDS011;49314;48.278;16.378;2022-11-20T07:02:31;6.65;;;6.15;;
63217;SDS011;49314;48.278;16.378;2022-11-20T07:04:56;6.93;;;6.53;;
63217;SDS011;49314;48.278;16.378;2022-11-20T07:07:21;6.57;;;6.10;;
63217;SDS011;49314;48.278;16.378;2022-11-20T07:09:47;7.27;;;6.67;;
63217;SDS011;49314;48.278;16.378;2022-11-20T07:12:12;6.23;;;5.73;;
63217;SDS011;49314;48.278;16.378;2022-11-20T07:14:37;7.17;;;6.67;;
63217;SDS011;49314;48.278;16.378;2022-11-20T07:17:02;6.97;;;6.57;;
63217;SDS011;49314;48.278;16.378;2022-11-20T07:19:27;7.23;;;6.73;;
63217;SDS011;49314;48.278;16.378;2022-11-20T07:21:53;6.73;;;6.33;;
63217;SDS011;49314;48.278;16.378;2022-11-20T07:24:18;6.33;;;6.03;;
63217;SDS011;49314;48.278;16.378;2022-11-20T07:26:45;7.13;;;6.63;;
63217;SDS011;49314;48.278;16.378;2022-11-20T07:29:10;7.43;;;7.03;;
63217;SDS011;49314;48.278;16.378;2022-11-20T07:31:35;7.20;;;6.80;;
63217;SDS011;49314;48.278;16.378;2022-11-20T07:34:01;7.47;;;7.07;;
63217;SDS011;49314;48.278;16.378;2022-11-20T07:36:26;6.73;;;6.33;;
63217;SDS011;49314;48.278;16.378;2022-11-20T07:38:51;6.77;;;6.37;;
63217;SDS011;49314;48.278;16.378;2022-11-20T07:41:16;7.57;;;7.17;;
63217;SDS011;49314;48.278;16.378;2022-11-20T07:43:41;7.83;;;7.33;;
63217;SDS011;49314;48.278;16.378;2022-11-20T07:46:07;7.43;;;6.93;;
63217;SDS011;49314;48.278;16.378;2022-11-20T07:48:32;7.33;;;6.83;;
63217;SDS011;49314;48.278;16.378;2022-11-20T07:50:57;7.27;;;6.77;;
63217;SDS011;49314;48.278;16.378;2022-11-20T07:53:23;6.72;;;6.32;;
63217;SDS011;49314;48.278;16.378;2022-11-20T07:55:48;7.20;;;6.75;;
63217;SDS011;49314;48.278;16.378;2022-11-20T07:58:13;7.47;;;6.97;;
63217;SDS011;49314;48.278;16.378;2022-11-20T08:00:39;7.30;;;6.90;;
63217;SDS011;49314;48.278;16.378;2022-11-20T08:03:04;7.13;;;6.72;;
63217;SDS011;49314;48.278;16.378;2022-11-20T08:05:29;6.85;;;6.45;;
63217;SDS011;49314;48.278;16.378;2022-11-20T08:07:54;6.63;;;6.22;;
63217;SDS011;49314;48.278;16.378;2022-11-20T08:10:20;6.73;;;6.33;;
63217;SDS011;49314;48.278;16.378;2022-11-20T08:12:49;7.00;;;6.60;;
63217;SDS011;49314;48.278;16.378;2022-11-20T08:15:33;8.25;;;7.75;;
63217;SDS011;49314;48.278;16.378;2022-11-20T08:17:59;6.75;;;6.35;;
63217;SDS011;49314;48.278;16.378;2022-11-20T08:20:24;6.82;;;6.43;;
63217;SDS011;49314;48.278;16.378;2022-11-20T08:22:50;6.95;;;6.45;;
63217;SDS011;49314;48.278;16.378;2022-11-20T08:25:15;6.70;;;6.10;;
63217;SDS011;49314;48.278;16.378;2022-11-20T08:27:40;6.90;;;6.50;;
63217;SDS011;49314;48.278;16.378;2022-11-20T08:30:05;5.50;;;5.20;;
63217;SDS011;49314;48.278;16.378;2022-11-20T08:32:31;6.63;;;6.22;;
63217;SDS011;49314;48.278;16.378;2022-11-20T08:34:56;6.97;;;6.57;;
63217;SDS011;49314;48.278;16.378;2022-11-20T08:37:21;7.63;;;7.13;;
63217;SDS011;49314;48.278;16.378;2022-11-20T08:39:47;6.75;;;6.35;;
63217;SDS011;49314;48.278;16.378;2022-11-20T08:42:12;7.10;;;6.70;;
63217;SDS011;49314;48.278;16.378;2022-11-20T08:44:37;6.83;;;6.43;;
63217;SDS011;49314;48.278;16.378;2022-11-20T08:47:02;7.17;;;6.67;;
63217;SDS011;49314;48.278;16.378;2022-11-20T08:49:27;6.93;;;6.53;;
63217;SDS011;49314;48.278;16.378;2022-11-20T08:51:53;8.33;;;7.83;;
63217;SDS011;49314;48.278;16.378;2022-11-20T08:54:20;7.68;;;7.20;;
63217;SDS011;49314;48.278;16.378;2022-11-20T08:56:46;7.60;;;7.10;;
63217;SDS011;49314;48.278;16.378;2022-11-20T08:59:12;6.32;;;5.82;;
63217;SDS011;49314;48.278;16.378;2022-11-20T09:01:37;6.83;;;6.43;;
63217;SDS011;49314;48.278;16.378;2022-11-20T09:04:02;8.07;;;7.57;;
63217;SDS011;49314;48.278;16.378;2022-11-20T09:06:29;7.70;;;7.20;;
63217;SDS011;49314;48.278;16.378;2022-11-20T09:08:54;7.50;;;6.90;;
63217;SDS011;49314;48.278;16.378;2022-11-20T09:11:20;7.20;;;6.80;;
63217;SDS011;49314;48.278;16.378;2022-11-20T09:13:45;7.50;;;7.00;;
63217;SDS011;49314;48.278;16.378;2022-11-20T09:16:10;7.93;;;7.43;;
63217;SDS011;49314;48.278;16.378;2022-11-20T09:18:36;6.68;;;6.22;;
63217;SDS011;49314;48.278;16.378;2022-11-20T09:21:03;7.63;;;7.13;;
63217;SDS011;49314;48.278;16.378;2022-11-20T09:23:32;7.40;;;6.90;;
63217;SDS011;49314;48.278;16.378;2022-11-20T09:25:58;7.35;;;6.70;;
63217;SDS011;49314;48.278;16.378;2022-11-20T09:28:26;8.02;;;7.53;;
63217;SDS011;49314;48.278;16.378;2022-11-20T09:30:51;7.32;;;6.88;;
63217;SDS011;49314;48.278;16.378;2022-11-20T09:33:16;7.87;;;7.37;;
63217;SDS011;49314;48.278;16.378;2022-11-20T09:35:42;7.50;;;7.00;;
63217;SDS011;49314;48.278;16.378;2022-11-20T09:38:08;8.32;;;7.80;;
63217;SDS011;49314;48.278;16.378;2022-11-20T09:40:36;7.88;;;7.35;;
63217;SDS011;49314;48.278;16.378;2022-11-20T09:43:11;7.40;;;6.90;;
63217;SDS011;49314;48.278;16.378;2022-11-20T09:50:41;8.27;;;7.70;;
63217;SDS011;49314;48.278;16.378;2022-11-20T09:55:33;7.95;;;7.35;;
63217;SDS011;49314;48.278;16.378;2022-11-20T09:57:59;9.43;;;8.75;;
63217;SDS011;49314;48.278;16.378;2022-11-20T10:00:24;7.00;;;6.50;;
63217;SDS011;49314;48.278;16.378;2022-11-20T10:05:17;7.97;;;7.37;;
63217;SDS011;49314;48.278;16.378;2022-11-20T10:20:46;7.55;;;7.05;;
63217;SDS011;49314;48.278;16.378;2022-11-20T10:25:38;8.17;;;7.60;;
63217;SDS011;49314;48.278;16.378;2022-11-20T10:30:45;8.32;;;7.72;;
63217;SDS011;49314;48.278;16.378;2022-11-20T10:38:36;8.37;;;7.77;;
63217;SDS011;49314;48.278;16.378;2022-11-20T10:40:57;8.80;;;8.20;;
63217;SDS011;49314;48.278;16.378;2022-11-20T10:43:44;7.78;;;7.15;;
63217;SDS011;49314;48.278;16.378;2022-11-20T10:46:11;9.70;;;9.10;;
63217;SDS011;49314;48.278;16.378;2022-11-20T10:48:38;7.68;;;7.07;;
63217;SDS011;49314;48.278;16.378;2022-11-20T10:51:08;9.00;;;8.40;;
63217;SDS011;49314;48.278;16.378;2022-11-20T10:56:03;8.33;;;7.73;;
63217;SDS011;49314;48.278;16.378;2022-11-20T10:58:37;9.05;;;8.45;;
63217;SDS011;49314;48.278;16.378;2022-11-20T11:01:05;8.95;;;8.35;;
63217;SDS011;49314;48.278;16.378;2022-11-20T11:03:31;8.18;;;7.68;;
63217;SDS011;49314;48.278;16.378;2022-11-20T11:05:59;9.35;;;8.65;;
63217;SDS011;49314;48.278;16.378;2022-11-20T11:08:28;9.00;;;8.40;;
63217;SDS011;49314;48.278;16.378;2022-11-20T11:10:58;8.38;;;7.68;;
63217;SDS011;49314;48.278;16.378;2022-11-20T11:13:27;8.48;;;7.88;;
63217;SDS011;49314;48.278;16.378;2022-11-20T11:15:52;9.10;;;8.48;;
63217;SDS011;49314;48.278;16.378;2022-11-20T11:18:39;9.27;;;8.68;;
63217;SDS011;49314;48.278;16.378;2022-11-20T11:21:04;9.15;;;8.50;;
63217;SDS011;49314;48.278;16.378;2022-11-20T11:23:39;9.57;;;8.93;;
63217;SDS011;49314;48.278;16.378;2022-11-20T11:26:06;9.70;;;9.00;;
63217;SDS011;49314;48.278;16.378;2022-11-20T11:28:32;8.25;;;7.55;;
63217;SDS011;49314;48.278;16.378;2022-11-20T11:30:57;8.50;;;7.80;;
63217;SDS011;49314;48.278;16.378;2022-11-20T11:33:24;9.27;;;8.67;;
63217;SDS011;49314;48.278;16.378;2022-11-20T11:35:50;9.23;;;8.48;;
63217;SDS011;49314;48.278;16.378;2022-11-20T11:40:54;9.52;;;8.82;;
63217;SDS011;49314;48.278;16.378;2022-11-20T11:43:25;9.05;;;8.27;;
63217;SDS011;49314;48.278;16.378;2022-11-20T11:51:25;10.50;;;8.13;;
63217;SDS011;49314;48.278;16.378;2022-11-20T11:53:51;7.78;;;7.10;;
63217;SDS011;49314;48.278;16.378;2022-11-20T11:56:17;9.40;;;8.57;;
63217;SDS011;49314;48.278;16.378;2022-11-20T11:58:51;8.50;;;7.63;;
63217;SDS011;49314;48.278;16.378;2022-11-20T12:06:48;9.63;;;8.02;;
63217;SDS011;49314;48.278;16.378;2022-11-20T12:09:15;9.32;;;8.43;;
63217;SDS011;49314;48.278;16.378;2022-11-20T12:14:11;7.93;;;7.33;;
63217;SDS011;49314;48.278;16.378;2022-11-20T12:16:38;9.63;;;8.30;;
63217;SDS011;49314;48.278;16.378;2022-11-20T12:19:08;7.88;;;7.28;;
63217;SDS011;49314;48.278;16.378;2022-11-20T12:21:43;8.75;;;8.15;;
63217;SDS011;49314;48.278;16.378;2022-11-20T12:31:45;9.07;;;8.43;;
63217;SDS011;49314;48.278;16.378;2022-11-20T12:36:40;10.20;;;9.30;;
63217;SDS011;49314;48.278;16.378;2022-11-20T12:39:17;9.82;;;9.02;;
63217;SDS011;49314;48.278;16.378;2022-11-20T12:47:20;11.93;;;10.88;;
63217;SDS011;49314;48.278;16.378;2022-11-20T12:52:41;11.48;;;10.38;;
63217;SDS011;49314;48.278;16.378;2022-11-20T12:55:28;11.38;;;10.40;;
63217;SDS011;49314;48.278;16.378;2022-11-20T13:00:24;11.65;;;10.50;;
63217;SDS011;49314;48.278;16.378;2022-11-20T13:07:43;12.07;;;10.98;;
63217;SDS011;49314;48.278;16.378;2022-11-20T13:13:15;13.05;;;11.95;;
63217;SDS011;49314;48.278;16.378;2022-11-20T13:15:55;10.82;;;9.73;;
63217;SDS011;49314;48.278;16.378;2022-11-20T13:18:22;12.35;;;11.25;;
63217;SDS011;49314;48.278;16.378;2022-11-20T13:20:47;12.43;;;11.27;;
63217;SDS011;49314;48.278;16.378;2022-11-20T13:23:23;11.85;;;10.73;;
63217;SDS011;49314;48.278;16.378;2022-11-20T13:25:49;12.23;;;11.02;;
63217;SDS011;49314;48.278;16.378;2022-11-20T13:30:50;12.13;;;11.03;;
63217;SDS011;49314;48.278;16.378;2022-11-20T13:35:54;12.07;;;10.93;;
63217;SDS011;49314;48.278;16.378;2022-11-20T13:38:20;10.90;;;8.68;;
63217;SDS011;49314;48.278;16.378;2022-11-20T13:40:52;12.90;;;11.60;;
63217;SDS011;49314;48.278;16.378;2022-11-20T13:43:19;11.00;;;9.88;;
63217;SDS011;49314;48.278;16.378;2022-11-20T13:45:59;14.95;;;13.57;;
63217;SDS011;49314;48.278;16.378;2022-11-20T13:48:44;11.90;;;10.90;;
63217;SDS011;49314;48.278;16.378;2022-11-20T13:51:12;12.63;;;11.32;;
63217;SDS011;49314;48.278;16.378;2022-11-20T13:53:53;12.60;;;11.27;;
63217;SDS011;49314;48.278;16.378;2022-11-20T13:56:32;12.80;;;11.70;;
63217;SDS011;49314;48.278;16.378;2022-11-20T13:59:02;13.32;;;12.02;;
63217;SDS011;49314;48.278;16.378;2022-11-20T14:01:32;12.43;;;11.13;;
63217;SDS011;49314;48.278;16.378;2022-11-20T14:03:57;11.88;;;10.68;;
63217;SDS011;49314;48.278;16.378;2022-11-20T14:06:27;12.55;;;11.35;;
63217;SDS011;49314;48.278;16.378;2022-11-20T14:08:53;11.18;;;10.18;;
63217;SDS011;49314;48.278;16.378;2022-11-20T14:11:19;11.10;;;10.02;;
63217;SDS011;49314;48.278;16.378;2022-11-20T14:13:52;13.50;;;12.32;;
63217;SDS011;49314;48.278;16.378;2022-11-20T14:16:19;10.32;;;9.30;;
63217;SDS011;49314;48.278;16.378;2022-11-20T14:18:44;12.15;;;11.00;;
63217;SDS011;49314;48.278;16.378;2022-11-20T14:21:10;12.67;;;11.43;;
63217;SDS011;49314;48.278;16.378;2022-11-20T14:23:35;11.53;;;10.33;;
63217;SDS011;49314;48.278;16.378;2022-11-20T14:26:00;11.13;;;10.13;;
63217;SDS011;49314;48.278;16.378;2022-11-20T14:28:26;12.68;;;11.57;;
63217;SDS011;49314;48.278;16.378;2022-11-20T14:30:52;11.60;;;10.55;;
63217;SDS011;49314;48.278;16.378;2022-11-20T14:33:18;12.32;;;11.23;;
63217;SDS011;49314;48.278;16.378;2022-11-20T14:35:48;13.90;;;12.60;;
63217;SDS011;49314;48.278;16.378;2022-11-20T14:38:15;12.50;;;10.93;;
63217;SDS011;49314;48.278;16.378;2022-11-20T14:40:41;12.45;;;11.15;;
63217;SDS011;49314;48.278;16.378;2022-11-20T14:45:42;12.52;;;11.38;;
63217;SDS011;49314;48.278;16.378;2022-11-20T14:48:08;15.32;;;11.30;;
63217;SDS011;49314;48.278;16.378;2022-11-20T14:50:34;13.00;;;11.77;;
63217;SDS011;49314;48.278;16.378;2022-11-20T14:53:00;12.50;;;11.20;;
63217;SDS011;49314;48.278;16.378;2022-11-20T14:55:35;13.32;;;12.05;;
63217;SDS011;49314;48.278;16.378;2022-11-20T14:58:05;12.38;;;11.18;;
63217;SDS011;49314;48.278;16.378;2022-11-20T15:00:32;12.80;;;11.35;;
63217;SDS011;49314;48.278;16.378;2022-11-20T15:02:57;11.98;;;10.88;;
63217;SDS011;49314;48.278;16.378;2022-11-20T15:05:43;11.98;;;10.85;;
63217;SDS011;49314;48.278;16.378;2022-11-20T15:08:08;12.07;;;10.93;;
63217;SDS011;49314;48.278;16.378;2022-11-20T15:10:34;12.40;;;11.10;;
63217;SDS011;49314;48.278;16.378;2022-11-20T15:13:00;12.60;;;11.40;;
63217;SDS011;49314;48.278;16.378;2022-11-20T15:16:00;12.70;;;11.43;;
63217;SDS011;49314;48.278;16.378;2022-11-20T15:18:20;11.80;;;10.52;;
63217;SDS011;49314;48.278;16.378;2022-11-20T15:20:46;11.88;;;10.77;;
63217;SDS011;49314;48.278;16.378;2022-11-20T15:23:12;12.48;;;11.30;;
63217;SDS011;49314;48.278;16.378;2022-11-20T15:25:41;12.38;;;11.32;;
63217;SDS011;49314;48.278;16.378;2022-11-20T15:28:17;11.93;;;10.77;;
63217;SDS011;49314;48.278;16.378;2022-11-20T15:30:42;12.50;;;11.30;;
63217;SDS011;49314;48.278;16.378;2022-11-20T15:33:08;14.82;;;13.52;;
63217;SDS011;49314;48.278;16.378;2022-11-20T15:35:33;13.35;;;11.73;;
63217;SDS011;49314;48.278;16.378;2022-11-20T15:37:58;14.10;;;11.90;;
63217;SDS011;49314;48.278;16.378;2022-11-20T15:40:24;12.23;;;11.13;;
63217;SDS011;49314;48.278;16.378;2022-11-20T15:42:49;13.67;;;12.47;;
63217;SDS011;49314;48.278;16.378;2022-11-20T15:45:31;11.73;;;10.73;;
63217;SDS011;49314;48.278;16.378;2022-11-20T15:47:58;11.82;;;10.73;;
63217;SDS011;49314;48.278;16.378;2022-11-20T15:50:32;12.18;;;10.90;;
63217;SDS011;49314;48.278;16.378;2022-11-20T15:52:59;12.90;;;11.68;;
63217;SDS011;49314;48.278;16.378;2022-11-20T15:55:24;11.30;;;10.30;;
63217;SDS011;49314;48.278;16.378;2022-11-20T15:57:49;13.70;;;11.10;;